createdAt,value
2022-11-21T00:00:39.960Z,11.18
2022-11-21T00:03:25.192Z,14.70
2022-11-21T00:06:10.744Z,14.00
2022-11-21T00:08:56.685Z,10.40
2022-11-21T00:11:42.001Z,9.77
2022-11-21T00:14:27.756Z,16.58
2022-11-21T00:17:14.616Z,13.52
2022-11-21T00:20:00.072Z,13.57
2022-11-21T00:22:45.721Z,13.68
2022-11-21T00:25:31.570Z,12.20
2022-11-21T00:28:17.023Z,18.83
2022-11-21T00:31:03.167Z,13.05
2022-11-21T00:33:48.441Z,11.27
2022-11-21T00:36:33.808Z,10.43
2022-11-21T00:39:19.442Z,14.57
2022-11-21T00:42:05.145Z,16.60
2022-11-21T00:44:50.628Z,11.95
2022-11-21T00:47:36.202Z,8.13
2022-11-21T00:50:21.830Z,13.27
2022-11-21T00:53:07.194Z,9.73
2022-11-21T00:55:52.818Z,13.70
2022-11-21T00:58:38.379Z,17.23
2022-11-21T01:01:23.881Z,13.65
2022-11-21T01:04:09.482Z,8.73
2022-11-21T01:06:54.740Z,14.75
2022-11-21T01:09:40.355Z,16.65
2022-11-21T01:12:26.232Z,14.40
2022-11-21T01:15:11.840Z,7.78
2022-11-21T01:17:57.166Z,15.10
2022-11-21T01:20:43.018Z,13.23
2022-11-21T01:23:29.431Z,11.25
2022-11-21T01:26:17.892Z,11.43
2022-11-21T01:29:03.129Z,11.57
2022-11-21T01:31:49.922Z,12.25
2022-11-21T01:34:35.033Z,16.98
2022-11-21T01:37:20.651Z,13.40
2022-11-21T01:40:06.398Z,15.20
2022-11-21T01:43:00.126Z,14.38
2022-11-21T01:45:51.555Z,10.80
2022-11-21T01:49:01.904Z,13.50
2022-11-21T01:52:06.842Z,16.70
2022-11-21T01:54:56.710Z,12.13
2022-11-21T01:57:48.487Z,14.73
2022-11-21T02:00:39.112Z,13.65
2022-11-21T02:03:29.224Z,15.60
2022-11-21T02:06:14.508Z,14.30
2022-11-21T02:09:01.512Z,13.38
2022-11-21T02:11:55.555Z,14.60
2022-11-21T02:14:43.784Z,8.38
2022-11-21T02:17:33.053Z,13.13
2022-11-21T02:20:21.036Z,12.05
2022-11-21T02:23:41.771Z,18.52
2022-11-21T02:26:27.119Z,11.13
2022-11-21T02:29:12.526Z,14.50
2022-11-21T02:32:05.377Z,16.02
2022-11-21T02:34:50.896Z,11.63
2022-11-21T02:37:37.287Z,12.15
2022-11-21T02:40:28.776Z,12.68
2022-11-21T02:43:23.284Z,10.82
2022-11-21T02:46:08.577Z,9.25
2022-11-21T02:48:56.706Z,13.63
2022-11-21T02:51:42.100Z,18.83
2022-11-21T02:54:27.787Z,17.92
2022-11-21T02:57:13.718Z,24.48
2022-11-21T02:59:59.183Z,11.23
2022-11-21T03:02:44.992Z,8.98
2022-11-21T03:05:30.398Z,13.25
2022-11-21T03:08:16.284Z,13.77
2022-11-21T03:11:01.487Z,11.43
2022-11-21T03:13:46.898Z,15.13
2022-11-21T03:16:32.288Z,9.95
2022-11-21T03:19:17.827Z,17.52
2022-11-21T03:22:03.769Z,16.48
2022-11-21T03:24:49.105Z,12.27
2022-11-21T03:27:34.529Z,11.38
2022-11-21T03:30:24.679Z,10.00
2022-11-21T03:33:10.197Z,25.17
2022-11-21T03:35:55.574Z,13.07
2022-11-21T03:38:41.180Z,12.32
2022-11-21T03:41:29.988Z,17.17
2022-11-21T03:44:15.133Z,9.38
2022-11-21T03:47:00.683Z,10.20
2022-11-21T03:49:46.190Z,11.52
2022-11-21T03:52:31.737Z,13.23
2022-11-21T03:55:17.452Z,17.73
2022-11-21T03:58:03.051Z,15.80
2022-11-21T04:00:48.545Z,14.45
2022-11-21T04:03:34.011Z,16.25
2022-11-21T04:06:20.930Z,14.38
2022-11-21T04:09:06.302Z,12.80
2022-11-21T04:11:51.676Z,15.82
2022-11-21T04:14:37.296Z,18.20
2022-11-21T04:17:22.539Z,15.65
2022-11-21T04:20:08.955Z,17.38
2022-11-21T04:22:54.281Z,15.65
2022-11-21T04:25:40.502Z,14.32
2022-11-21T04:28:26.064Z,16.02
2022-11-21T04:31:11.647Z,11.55
2022-11-21T04:33:57.450Z,16.83
2022-11-21T04:36:42.896Z,14.63
2022-11-21T04:39:28.297Z,21.60
2022-11-21T04:42:13.726Z,12.43
2022-11-21T04:44:59.216Z,13.95
2022-11-21T04:47:46.986Z,21.67
2022-11-21T04:50:32.803Z,21.73
2022-11-21T04:53:18.221Z,13.05
2022-11-21T04:56:05.716Z,12.90
2022-11-21T04:58:53.068Z,21.95
2022-11-21T05:01:38.614Z,10.38
2022-11-21T05:04:23.941Z,13.68
2022-11-21T05:07:09.554Z,15.07
2022-11-21T05:09:55.012Z,10.75
2022-11-21T05:12:58.688Z,23.00
2022-11-21T05:18:29.384Z,12.35
2022-11-21T05:21:14.922Z,19.65
2022-11-21T05:24:00.461Z,25.10
2022-11-21T05:26:46.015Z,16.20
2022-11-21T05:29:31.710Z,18.98
2022-11-21T05:32:17.279Z,19.38
2022-11-21T05:35:02.862Z,21.98
2022-11-21T05:37:48.377Z,18.17
2022-11-21T05:40:33.635Z,19.42
2022-11-21T05:43:37.855Z,20.63
2022-11-21T05:46:25.741Z,11.32
2022-11-21T05:49:11.390Z,15.15
2022-11-21T05:51:56.610Z,18.25
2022-11-21T05:54:45.964Z,12.75
2022-11-21T05:57:31.515Z,21.17
2022-11-21T06:00:17.617Z,18.52
2022-11-21T06:03:21.262Z,24.70
2022-11-21T06:06:11.938Z,21.15
2022-11-21T06:08:57.129Z,22.85
2022-11-21T06:11:42.611Z,13.60
2022-11-21T06:14:28.312Z,21.80
2022-11-21T06:17:14.044Z,15.55
2022-11-21T06:19:59.425Z,20.05
2022-11-21T06:22:44.969Z,15.82
2022-11-21T06:25:30.389Z,19.13
2022-11-21T06:28:15.944Z,19.42
2022-11-21T06:31:07.069Z,26.25
2022-11-21T06:33:57.766Z,15.80
2022-11-21T06:36:44.735Z,20.20
2022-11-21T06:39:30.264Z,20.35
2022-11-21T06:42:15.798Z,17.27
2022-11-21T06:45:01.231Z,19.40
2022-11-21T06:47:47.023Z,17.02
2022-11-21T06:50:32.534Z,16.60
2022-11-21T06:53:17.961Z,17.17
2022-11-21T06:56:04.075Z,20.83
2022-11-21T06:58:49.310Z,27.95
2022-11-21T07:01:34.528Z,15.57
2022-11-21T07:04:20.048Z,20.40
2022-11-21T07:07:05.827Z,16.48
2022-11-21T07:09:51.239Z,21.83
2022-11-21T07:12:55.451Z,21.92
2022-11-21T07:15:41.063Z,23.05
2022-11-21T07:18:27.021Z,17.88
2022-11-21T07:21:12.652Z,21.38
2022-11-21T07:23:58.168Z,19.17
2022-11-21T07:26:43.801Z,13.82
2022-11-21T07:29:29.794Z,17.30
2022-11-21T07:32:15.775Z,19.17
2022-11-21T07:35:02.121Z,13.60
2022-11-21T07:37:47.896Z,11.10
2022-11-21T07:40:34.773Z,15.75
2022-11-21T07:43:20.285Z,18.65
2022-11-21T07:46:05.922Z,13.77
2022-11-21T07:49:19.425Z,17.35
2022-11-21T07:52:04.764Z,20.73
2022-11-21T07:54:50.374Z,14.93
2022-11-21T07:57:36.035Z,14.98
2022-11-21T08:00:21.755Z,16.35
2022-11-21T08:03:07.224Z,11.38
2022-11-21T08:05:52.536Z,14.52
2022-11-21T08:08:38.144Z,13.35
2022-11-21T08:11:23.834Z,13.02
2022-11-21T08:14:09.575Z,12.93
2022-11-21T08:16:56.094Z,23.38
2022-11-21T08:19:41.698Z,22.17
2022-11-21T08:22:27.453Z,10.40
2022-11-21T08:25:12.700Z,14.07
2022-11-21T08:27:58.917Z,17.85
2022-11-21T08:30:44.732Z,15.82
2022-11-21T08:33:30.187Z,13.40
2022-11-21T08:36:15.521Z,18.88
2022-11-21T08:39:02.160Z,13.02
2022-11-21T08:42:05.765Z,21.58
2022-11-21T08:44:51.344Z,17.48
2022-11-21T08:47:36.832Z,17.50
2022-11-21T08:50:23.777Z,22.60
2022-11-21T08:53:09.401Z,27.35
2022-11-21T08:55:55.031Z,13.05
2022-11-21T08:58:40.827Z,21.27
2022-11-21T09:01:26.433Z,14.95
2022-11-21T09:04:12.188Z,14.20
2022-11-21T09:06:57.642Z,16.05
2022-11-21T09:09:43.309Z,21.85
2022-11-21T09:12:28.911Z,22.33
2022-11-21T09:15:33.104Z,15.65
2022-11-21T09:18:18.681Z,16.20
2022-11-21T09:21:04.341Z,12.05
2022-11-21T09:23:50.445Z,15.90
2022-11-21T09:26:36.156Z,20.15
2022-11-21T09:29:21.382Z,8.73
2022-11-21T09:32:07.009Z,16.23
2022-11-21T09:34:52.650Z,14.73
2022-11-21T09:37:38.657Z,9.20
2022-11-21T09:40:25.451Z,17.58
2022-11-21T09:43:25.799Z,17.58
2022-11-21T09:46:23.434Z,17.13
2022-11-21T09:49:13.030Z,21.23
2022-11-21T09:51:59.626Z,22.83
2022-11-21T09:55:02.620Z,17.50
2022-11-21T09:57:49.865Z,21.83
2022-11-21T10:00:35.460Z,13.93
2022-11-21T10:03:24.413Z,18.10
2022-11-21T10:06:29.242Z,19.20
2022-11-21T10:09:39.158Z,18.80
2022-11-21T10:12:47.366Z,18.35
2022-11-21T10:16:07.988Z,19.25
2022-11-21T10:19:41.852Z,18.33
2022-11-21T10:22:38.673Z,21.35
2022-11-21T10:25:31.243Z,24.25
2022-11-21T10:28:39.943Z,29.60
2022-11-21T10:31:30.674Z,22.67
2022-11-21T10:34:37.843Z,24.25
2022-11-21T10:37:35.048Z,24.10
2022-11-21T10:40:39.564Z,14.98
2022-11-21T10:44:24.387Z,29.88
2022-11-21T10:50:04.031Z,19.27
2022-11-21T10:52:53.705Z,20.33
2022-11-21T10:56:04.475Z,12.85
2022-11-21T10:59:11.727Z,18.67
2022-11-21T11:01:59.111Z,17.35
2022-11-21T11:04:50.825Z,23.80
2022-11-21T11:07:37.859Z,24.70
2022-11-21T11:10:27.466Z,14.43
2022-11-21T11:13:50.894Z,19.20
2022-11-21T11:16:41.448Z,17.33
2022-11-21T11:19:35.317Z,16.33
2022-11-21T11:22:29.236Z,21.83
2022-11-21T11:25:15.963Z,19.65
2022-11-21T11:28:08.021Z,20.60
2022-11-21T11:30:55.090Z,23.27
2022-11-21T11:33:49.759Z,19.42
2022-11-21T11:36:47.324Z,16.52
2022-11-21T11:39:35.660Z,20.92
2022-11-21T11:43:10.935Z,19.52
2022-11-21T11:46:33.305Z,15.32
2022-11-21T11:49:55.950Z,16.85
2022-11-21T11:52:53.093Z,18.75
2022-11-21T11:55:47.257Z,21.73
2022-11-21T11:58:45.926Z,19.85
2022-11-21T12:01:31.277Z,20.17
2022-11-21T12:04:22.147Z,18.38
2022-11-21T12:11:09.389Z,30.42
2022-11-21T12:13:57.772Z,25.92
2022-11-21T12:16:43.457Z,23.67
2022-11-21T12:19:29.488Z,25.05
2022-11-21T12:22:14.939Z,22.02
2022-11-21T12:25:00.410Z,20.38
2022-11-21T12:27:49.822Z,21.40
2022-11-21T12:31:04.774Z,22.25
2022-11-21T12:34:12.584Z,15.80
2022-11-21T12:37:26.590Z,24.85
2022-11-21T12:40:40.403Z,22.00
2022-11-21T12:46:41.805Z,18.15
2022-11-21T12:49:56.479Z,17.33
2022-11-21T12:53:07.582Z,12.20
2022-11-21T12:55:58.584Z,25.38
2022-11-21T12:58:48.712Z,21.23
2022-11-21T13:01:58.643Z,15.48
2022-11-21T13:04:47.335Z,15.75
2022-11-21T13:07:33.506Z,15.63
2022-11-21T13:10:18.969Z,17.20
2022-11-21T13:13:27.223Z,11.02
2022-11-21T13:16:36.885Z,14.05
2022-11-21T13:19:51.708Z,10.55
2022-11-21T13:22:37.363Z,16.23
2022-11-21T13:25:32.464Z,18.10
2022-11-21T13:28:17.965Z,6.47
2022-11-21T13:31:24.105Z,6.65
2022-11-21T13:34:45.402Z,5.20
2022-11-21T13:37:49.796Z,4.90
2022-11-21T13:40:38.533Z,11.95
2022-11-21T13:43:33.096Z,8.35
2022-11-21T13:46:58.363Z,9.25
2022-11-21T13:49:48.890Z,7.82
2022-11-21T13:52:43.787Z,9.40
2022-11-21T13:55:49.117Z,8.32
2022-11-21T13:58:55.061Z,7.93
2022-11-21T14:01:59.688Z,7.70
2022-11-21T14:04:47.048Z,9.85
2022-11-21T14:07:35.209Z,11.23
2022-11-21T14:10:35.991Z,7.32
2022-11-21T14:13:28.374Z,6.97
2022-11-21T14:16:35.184Z,7.18
2022-11-21T14:19:21.360Z,6.75
2022-11-21T14:22:35.009Z,9.32
2022-11-21T14:25:35.425Z,4.38
2022-11-21T14:28:26.863Z,9.75
2022-11-21T14:31:13.402Z,5.57
2022-11-21T14:33:59.221Z,6.60
2022-11-21T14:36:45.177Z,6.60
2022-11-21T14:39:44.130Z,6.45
2022-11-21T14:42:37.433Z,6.15
2022-11-21T14:45:24.289Z,13.95
2022-11-21T14:48:12.985Z,8.93
2022-11-21T14:50:59.865Z,10.13
2022-11-21T14:53:47.609Z,5.97
2022-11-21T14:56:34.424Z,6.85
2022-11-21T14:59:26.587Z,6.60
2022-11-21T15:02:14.483Z,4.22
2022-11-21T15:05:07.465Z,7.43
2022-11-21T15:08:01.225Z,3.78
2022-11-21T15:11:00.587Z,4.43
2022-11-21T15:14:14.393Z,5.43
2022-11-21T15:16:57.894Z,8.18
2022-11-21T15:19:44.976Z,5.75
2022-11-21T15:22:37.653Z,9.90
2022-11-21T15:25:29.077Z,7.00
2022-11-21T15:28:19.354Z,5.10
2022-11-21T15:31:21.495Z,3.53
2022-11-21T15:34:34.212Z,6.38
2022-11-21T15:37:18.243Z,5.93
2022-11-21T15:40:04.014Z,4.72
2022-11-21T15:42:50.550Z,5.22
2022-11-21T15:45:36.440Z,2.60
2022-11-21T15:48:23.709Z,7.53
2022-11-21T15:51:13.245Z,4.38
2022-11-21T15:53:58.425Z,5.15
2022-11-21T15:56:44.542Z,3.40
2022-11-21T15:59:30.501Z,5.72
2022-11-21T16:02:16.447Z,2.53
2022-11-21T16:05:02.028Z,5.15
2022-11-21T16:07:48.445Z,4.80
2022-11-21T16:10:36.131Z,3.67
2022-11-21T16:13:22.018Z,6.85
2022-11-21T16:16:10.310Z,4.90
2022-11-21T16:18:57.465Z,3.75
2022-11-21T16:21:43.537Z,6.63
2022-11-21T16:24:29.761Z,6.03
2022-11-21T16:27:15.373Z,5.90
2022-11-21T16:30:01.484Z,9.55
2022-11-21T16:32:48.286Z,6.07
2022-11-21T16:35:37.966Z,3.72
2022-11-21T16:38:25.793Z,6.50
2022-11-21T16:41:13.342Z,5.55
2022-11-21T16:43:58.980Z,5.63
2022-11-21T16:46:48.162Z,5.90
2022-11-21T16:49:34.235Z,3.78
2022-11-21T16:52:20.104Z,4.53
2022-11-21T16:55:06.819Z,5.35
2022-11-21T16:57:55.997Z,2.05
2022-11-21T17:00:43.449Z,2.85
2022-11-21T17:03:28.750Z,3.08
2022-11-21T17:06:21.856Z,2.78
2022-11-21T17:09:07.580Z,3.40
2022-11-21T17:11:56.430Z,3.83
2022-11-21T17:14:42.340Z,3.92
2022-11-21T17:17:27.961Z,1.38
2022-11-21T17:20:13.194Z,3.17
2022-11-21T17:22:58.774Z,2.65
2022-11-21T17:25:44.319Z,1.63
2022-11-21T17:28:30.268Z,0.60
2022-11-21T17:31:16.126Z,2.22
2022-11-21T17:34:02.406Z,0.70
2022-11-21T17:36:47.915Z,1.92
2022-11-21T17:39:33.686Z,2.05
2022-11-21T17:42:19.527Z,2.97
2022-11-21T17:45:05.901Z,1.58
2022-11-21T17:47:51.564Z,2.55
2022-11-21T17:50:37.838Z,4.18
2022-11-21T17:53:23.614Z,7.88
2022-11-21T17:56:17.696Z,3.75
2022-11-21T17:59:04.446Z,7.30
2022-11-21T18:01:50.038Z,11.98
2022-11-21T18:04:38.928Z,6.50
2022-11-21T18:07:24.873Z,4.38
2022-11-21T18:10:40.695Z,4.70
2022-11-21T18:13:16.050Z,5.68
2022-11-21T18:16:07.090Z,5.47
2022-11-21T18:18:52.820Z,6.80
2022-11-21T18:21:38.480Z,6.18
2022-11-21T18:24:23.923Z,8.07
2022-11-21T18:27:09.699Z,7.85
2022-11-21T18:29:55.067Z,4.15
2022-11-21T18:32:40.769Z,9.82
2022-11-21T18:35:27.221Z,5.60
2022-11-21T18:38:40.302Z,10.18
2022-11-21T18:41:23.720Z,9.70
2022-11-21T18:44:10.235Z,9.48
2022-11-21T18:46:55.733Z,8.07
2022-11-21T18:49:41.207Z,13.77
2022-11-21T18:52:27.341Z,11.18
2022-11-21T18:55:12.631Z,6.80
2022-11-21T18:57:58.099Z,11.52
2022-11-21T19:00:43.940Z,14.13
2022-11-21T19:03:29.277Z,7.32
2022-11-21T19:06:17.824Z,13.98
2022-11-21T19:09:04.371Z,17.83
2022-11-21T19:11:49.958Z,15.95
2022-11-21T19:14:35.299Z,12.68
2022-11-21T19:17:21.065Z,14.30
2022-11-21T19:20:06.804Z,13.00
2022-11-21T19:22:53.397Z,15.27
2022-11-21T19:25:38.913Z,9.85
2022-11-21T19:28:24.643Z,13.43
2022-11-21T19:31:12.322Z,14.30
2022-11-21T19:33:58.343Z,15.20
2022-11-21T19:36:44.832Z,12.98
2022-11-21T19:39:30.697Z,11.90
2022-11-21T19:42:16.466Z,10.30
2022-11-21T19:45:01.952Z,17.60
2022-11-21T19:47:47.831Z,17.50
2022-11-21T19:50:33.343Z,8.95
2022-11-21T19:53:18.959Z,12.10
2022-11-21T19:56:18.649Z,10.82
2022-11-21T19:59:05.017Z,13.13
2022-11-21T20:01:52.948Z,18.27
2022-11-21T20:04:38.699Z,9.88
2022-11-21T20:07:24.394Z,20.10
2022-11-21T20:10:10.002Z,20.77
2022-11-21T20:12:55.533Z,14.07
2022-11-21T20:15:40.982Z,14.02
2022-11-21T20:18:27.005Z,18.90
2022-11-21T20:21:13.301Z,18.25
2022-11-21T20:23:58.976Z,16.23
2022-11-21T20:26:45.045Z,16.10
2022-11-21T20:29:30.607Z,16.55
2022-11-21T20:32:16.522Z,16.13
2022-11-21T20:35:01.917Z,12.95
2022-11-21T20:37:47.507Z,12.88
2022-11-21T20:40:33.138Z,14.00
2022-11-21T20:43:18.646Z,14.50
2022-11-21T20:46:11.831Z,12.68
2022-11-21T20:49:00.994Z,12.00
2022-11-21T20:54:53.012Z,17.80
2022-11-21T20:57:39.002Z,8.07
2022-11-21T21:00:24.179Z,14.65
2022-11-21T21:03:13.922Z,14.55
2022-11-21T21:06:06.798Z,13.30
2022-11-21T21:11:51.664Z,13.40
2022-11-21T21:14:38.089Z,13.98
2022-11-21T21:17:23.837Z,9.15
2022-11-21T21:20:09.741Z,15.55
2022-11-21T21:22:56.319Z,12.38
2022-11-21T21:25:45.545Z,12.27
2022-11-21T21:28:32.063Z,10.60
2022-11-21T21:31:19.364Z,9.77
2022-11-21T21:34:04.721Z,12.35
2022-11-21T21:36:51.265Z,16.63
2022-11-21T21:39:36.623Z,8.13
2022-11-21T21:42:29.724Z,13.60
2022-11-21T21:45:15.554Z,12.43
2022-11-21T21:48:01.318Z,11.38
2022-11-21T21:50:46.880Z,8.32
2022-11-21T21:53:36.111Z,12.02
2022-11-21T21:56:24.668Z,5.32
2022-11-21T21:59:10.119Z,11.07
2022-11-21T22:01:55.616Z,7.72
2022-11-21T22:04:41.175Z,11.45
2022-11-21T22:07:27.019Z,7.20
2022-11-21T22:10:12.626Z,11.13
2022-11-21T22:12:58.174Z,11.70
2022-11-21T22:15:44.608Z,6.72
2022-11-21T22:18:32.170Z,15.20
2022-11-21T22:21:27.386Z,13.07
2022-11-21T22:24:25.872Z,8.40
2022-11-21T22:27:11.523Z,14.43
2022-11-21T22:29:57.137Z,14.18
2022-11-21T22:32:42.654Z,12.48
2022-11-21T22:35:28.214Z,8.90
2022-11-21T22:38:15.052Z,8.93
2022-11-21T22:41:05.097Z,11.38
2022-11-21T22:43:57.821Z,10.50
2022-11-21T22:46:43.608Z,8.57
2022-11-21T22:49:29.323Z,12.13
2022-11-21T22:52:14.854Z,7.10
2022-11-21T22:55:00.437Z,9.65
2022-11-21T22:57:45.859Z,8.85
2022-11-21T23:00:31.371Z,11.25
2022-11-21T23:03:16.675Z,10.02
2022-11-21T23:06:10.314Z,7.13
2022-11-21T23:08:57.025Z,7.28
2022-11-21T23:11:42.197Z,7.55
2022-11-21T23:14:27.947Z,13.13
2022-11-21T23:17:13.839Z,9.35
2022-11-21T23:19:59.180Z,9.20
2022-11-21T23:22:45.304Z,15.05
2022-11-21T23:25:30.455Z,7.38
2022-11-21T23:28:16.136Z,11.52
2022-11-21T23:31:01.955Z,8.13
2022-11-21T23:33:47.274Z,8.48
2022-11-21T23:36:32.935Z,8.23
2022-11-21T23:39:21.846Z,8.20
2022-11-21T23:42:07.615Z,9.80
2022-11-21T23:44:53.285Z,11.95
2022-11-21T23:47:38.992Z,5.57
2022-11-21T23:50:24.858Z,7.00
2022-11-21T23:53:10.506Z,12.73
2022-11-21T23:55:56.175Z,8.98
2022-11-21T23:58:41.489Z,10.63
